sensor_id;sensor_type;location;lat;lon;timestamp;pressure;altitude;pressure_sealevel;temperature;humidity
16094;BME280;8151;47.824;12.092;2023-02-23T00:02:06;95917.91;;;8.42;55.18
16094;BME280;8151;47.824;12.092;2023-02-23T00:04:35;95925.50;;;8.45;55.53
16094;BME280;8151;47.824;12.092;2023-02-23T00:07:05;95924.66;;;8.45;55.60
16094;BME280;8151;47.824;12.092;2023-02-23T00:09:34;95921.69;;;8.48;55.18
16094;BME280;8151;47.824;12.092;2023-02-23T00:12:04;95926.47;;;8.44;55.20
16094;BME280;8151;47.824;12.092;2023-02-23T00:14:35;95924.84;;;8.43;55.34
16094;BME280;8151;47.824;12.092;2023-02-23T00:17:05;95925.00;;;8.42;55.73
16094;BME280;8151;47.824;12.092;2023-02-23T00:19:40;95928.28;;;8.44;55.71
16094;BME280;8151;47.824;12.092;2023-02-23T00:22:11;95917.75;;;8.44;55.52
16094;BME280;8151;47.824;12.092;2023-02-23T00:24:39;95932.09;;;8.50;55.70
16094;BME280;8151;47.824;12.092;2023-02-23T00:27:09;95924.66;;;8.53;55.37
16094;BME280;8151;47.824;12.092;2023-02-23T00:29:43;95924.66;;;8.53;55.34
16094;BME280;8151;47.824;12.092;2023-02-23T00:32:15;95923.69;;;8.46;55.37
16094;BME280;8151;47.824;12.092;2023-02-23T00:34:46;95935.66;;;8.40;55.61
16094;BME280;8151;47.824;12.092;2023-02-23T00:37:17;95934.53;;;8.35;55.94
16094;BME280;8151;47.824;12.092;2023-02-23T00:39:46;95930.91;;;8.36;55.94
16094;BME280;8151;47.824;12.092;2023-02-23T00:42:14;95929.25;;;8.26;56.02
16094;BME280;8151;47.824;12.092;2023-02-23T00:44:42;95928.59;;;8.24;56.23
16094;BME280;8151;47.824;12.092;2023-02-23T00:47:13;95929.41;;;8.25;56.51
16094;BME280;8151;47.824;12.092;2023-02-23T00:49:42;95928.75;;;8.23;56.34
16094;BME280;8151;47.824;12.092;2023-02-23T00:52:11;95931.03;;;8.18;56.41
16094;BME280;8151;47.824;12.092;2023-02-23T00:54:42;95932.88;;;8.17;56.63
16094;BME280;8151;47.824;12.092;2023-02-23T00:57:11;95930.72;;;8.13;56.59
16094;BME280;8151;47.824;12.092;2023-02-23T00:59:39;95929.72;;;8.14;56.84
16094;BME280;8151;47.824;12.092;2023-02-23T01:02:07;95938.78;;;8.19;56.80
16094;BME280;8151;47.824;12.092;2023-02-23T01:04:36;95929.91;;;8.20;56.73
16094;BME280;8151;47.824;12.092;2023-02-23T01:07:04;95934.03;;;8.23;56.33
16094;BME280;8151;47.824;12.092;2023-02-23T01:09:33;95933.72;;;8.26;56.80
16094;BME280;8151;47.824;12.092;2023-02-23T01:12:05;95929.09;;;8.28;56.74
16094;BME280;8151;47.824;12.092;2023-02-23T01:14:35;95926.13;;;8.31;56.60
16094;BME280;8151;47.824;12.092;2023-02-23T01:17:04;95924.13;;;8.33;56.42
16094;BME280;8151;47.824;12.092;2023-02-23T01:19:33;95923.81;;;8.28;56.57
16094;BME280;8151;47.824;12.092;2023-02-23T01:22:01;95925.78;;;8.18;56.91
16094;BME280;8151;47.824;12.092;2023-02-23T01:24:30;95920.00;;;8.14;57.08
16094;BME280;8151;47.824;12.092;2023-02-23T01:26:58;95927.44;;;8.11;57.02
16094;BME280;8151;47.824;12.092;2023-02-23T01:29:28;95925.44;;;8.04;57.39
16094;BME280;8151;47.824;12.092;2023-02-23T01:31:56;95925.78;;;8.01;57.33
16094;BME280;8151;47.824;12.092;2023-02-23T01:34:25;95924.78;;;8.02;57.43
16094;BME280;8151;47.824;12.092;2023-02-23T01:36:54;95927.91;;;8.06;57.26
16094;BME280;8151;47.824;12.092;2023-02-23T01:39:22;95921.16;;;8.12;57.01
16094;BME280;8151;47.824;12.092;2023-02-23T01:41:51;95926.44;;;8.12;56.92
16094;BME280;8151;47.824;12.092;2023-02-23T01:47:27;95921.16;;;8.03;56.97
16094;BME280;8151;47.824;12.092;2023-02-23T01:49:56;95928.56;;;8.00;57.16
16094;BME280;8151;47.824;12.092;2023-02-23T01:52:24;95922.63;;;7.98;57.07
16094;BME280;8151;47.824;12.092;2023-02-23T01:54:54;95915.72;;;7.97;57.21
16094;BME280;8151;47.824;12.092;2023-02-23T01:57:23;95927.09;;;7.97;57.31
16094;BME280;8151;47.824;12.092;2023-02-23T01:59:53;95922.47;;;7.99;57.40
16094;BME280;8151;47.824;12.092;2023-02-23T02:02:24;95914.22;;;7.94;57.35
16094;BME280;8151;47.824;12.092;2023-02-23T02:05:04;95915.91;;;7.95;57.65
16094;BME280;8151;47.824;12.092;2023-02-23T02:07:41;95921.47;;;7.92;57.73
16094;BME280;8151;47.824;12.092;2023-02-23T02:10:12;95916.38;;;7.91;57.68
16094;BME280;8151;47.824;12.092;2023-02-23T02:13:08;95911.59;;;7.86;57.82
16094;BME280;8151;47.824;12.092;2023-02-23T02:16:05;95911.59;;;7.86;57.97
16094;BME280;8151;47.824;12.092;2023-02-23T02:18:53;95910.13;;;7.83;57.85
16094;BME280;8151;47.824;12.092;2023-02-23T02:22:01;95906.81;;;7.81;58.28
16094;BME280;8151;47.824;12.092;2023-02-23T02:24:59;95909.63;;;7.88;58.06
16094;BME280;8151;47.824;12.092;2023-02-23T02:27:53;95905.66;;;7.92;57.67
16094;BME280;8151;47.824;12.092;2023-02-23T02:30:47;95900.09;;;7.95;57.90
16094;BME280;8151;47.824;12.092;2023-02-23T02:33:47;95903.38;;;7.97;58.16
16094;BME280;8151;47.824;12.092;2023-02-23T02:36:48;95903.38;;;7.97;57.76
16094;BME280;8151;47.824;12.092;2023-02-23T02:39:23;95903.53;;;7.96;57.82
16094;BME280;8151;47.824;12.092;2023-02-23T02:42:10;95897.44;;;8.03;57.67
16094;BME280;8151;47.824;12.092;2023-02-23T02:44:50;95903.38;;;8.05;57.74
16094;BME280;8151;47.824;12.092;2023-02-23T02:47:24;95900.09;;;8.03;57.85
16094;BME280;8151;47.824;12.092;2023-02-23T02:49:59;95901.06;;;8.02;57.95
16094;BME280;8151;47.824;12.092;2023-02-23T02:52:34;95900.75;;;7.97;57.69
16094;BME280;8151;47.824;12.092;2023-02-23T02:55:10;95901.22;;;7.93;57.96
16094;BME280;8151;47.824;12.092;2023-02-23T02:57:41;95899.91;;;7.88;58.01
16094;BME280;8151;47.824;12.092;2023-02-23T03:00:16;95898.59;;;7.84;58.15
16094;BME280;8151;47.824;12.092;2023-02-23T03:03:03;95911.25;;;7.81;58.10
16094;BME280;8151;47.824;12.092;2023-02-23T03:05:51;95906.31;;;7.86;58.07
16094;BME280;8151;47.824;12.092;2023-02-23T03:08:47;95905.66;;;7.92;58.16
16094;BME280;8151;47.824;12.092;2023-02-23T03:11:37;95911.28;;;7.89;58.16
16094;BME280;8151;47.824;12.092;2023-02-23T03:14:28;95909.13;;;7.84;58.20
16094;BME280;8151;47.824;12.092;2023-02-23T03:17:28;95911.44;;;7.87;58.33
16094;BME280;8151;47.824;12.092;2023-02-23T03:20:21;95918.84;;;7.92;58.10
16094;BME280;8151;47.824;12.092;2023-02-23T03:23:15;95920.81;;;7.90;58.24
16094;BME280;8151;47.824;12.092;2023-02-23T03:26:10;95911.94;;;7.91;58.08
16094;BME280;8151;47.824;12.092;2023-02-23T03:29:02;95919.50;;;7.94;58.20
16094;BME280;8151;47.824;12.092;2023-02-23T03:31:55;95914.56;;;7.91;58.25
16094;BME280;8151;47.824;12.092;2023-02-23T03:34:51;95919.00;;;7.91;58.50
16094;BME280;8151;47.824;12.092;2023-02-23T03:37:41;95918.34;;;7.88;58.37
16094;BME280;8151;47.824;12.092;2023-02-23T03:40:34;95920.97;;;7.88;58.52
16094;BME280;8151;47.824;12.092;2023-02-23T03:43:26;95927.75;;;7.91;58.55
16094;BME280;8151;47.824;12.092;2023-02-23T03:46:15;95923.44;;;7.90;58.55
16094;BME280;8151;47.824;12.092;2023-02-23T03:49:05;95926.09;;;7.90;58.99
16094;BME280;8151;47.824;12.092;2023-02-23T03:51:59;95928.06;;;7.96;59.04
16094;BME280;8151;47.824;12.092;2023-02-23T03:54:52;95931.84;;;8.02;58.66
16094;BME280;8151;47.824;12.092;2023-02-23T03:57:40;95930.03;;;8.02;58.53
16094;BME280;8151;47.824;12.092;2023-02-23T04:00:33;95934.34;;;8.03;58.77
16094;BME280;8151;47.824;12.092;2023-02-23T04:03:21;95933.34;;;8.04;58.71
16094;BME280;8151;47.824;12.092;2023-02-23T04:06:11;95940.44;;;8.04;58.89
16094;BME280;8151;47.824;12.092;2023-02-23T04:09:00;95935.50;;;8.01;59.16
16094;BME280;8151;47.824;12.092;2023-02-23T04:11:52;95942.25;;;8.03;59.06
16094;BME280;8151;47.824;12.092;2023-02-23T04:14:44;95939.28;;;8.06;58.79
16094;BME280;8151;47.824;12.092;2023-02-23T04:17:16;95941.94;;;8.06;59.05
16094;BME280;8151;47.824;12.092;2023-02-23T04:19:51;95937.97;;;8.11;59.01
16094;BME280;8151;47.824;12.092;2023-02-23T04:22:20;95936.97;;;8.12;59.06
16094;BME280;8151;47.824;12.092;2023-02-23T04:24:48;95945.22;;;8.08;59.24
16094;BME280;8151;47.824;12.092;2023-02-23T04:27:17;95944.72;;;8.05;59.29
16094;BME280;8151;47.824;12.092;2023-02-23T04:29:46;95943.06;;;8.04;59.32
16094;BME280;8151;47.824;12.092;2023-02-23T04:32:17;95945.69;;;8.04;59.51
16094;BME280;8151;47.824;12.092;2023-02-23T04:34:47;95945.69;;;8.04;59.65
16094;BME280;8151;47.824;12.092;2023-02-23T04:37:15;95955.41;;;8.03;59.67
16094;BME280;8151;47.824;12.092;2023-02-23T04:39:44;95951.97;;;8.03;59.59
16094;BME280;8151;47.824;12.092;2023-02-23T04:42:16;95950.31;;;8.02;59.58
16094;BME280;8151;47.824;12.092;2023-02-23T04:44:45;95946.69;;;8.03;59.82
16094;BME280;8151;47.824;12.092;2023-02-23T04:47:15;95945.19;;;8.00;59.72
16094;BME280;8151;47.824;12.092;2023-02-23T04:49:44;95942.91;;;7.97;59.54
16094;BME280;8151;47.824;12.092;2023-02-23T04:52:12;95939.41;;;7.97;60.02
16094;BME280;8151;47.824;12.092;2023-02-23T04:54:40;95945.69;;;7.96;59.60
16094;BME280;8151;47.824;12.092;2023-02-23T04:57:09;95951.94;;;7.95;60.05
16094;BME280;8151;47.824;12.092;2023-02-23T04:59:38;95945.69;;;7.96;60.09
16094;BME280;8151;47.824;12.092;2023-02-23T05:02:06;95949.47;;;8.01;59.70
16094;BME280;8151;47.824;12.092;2023-02-23T05:04:36;95949.34;;;8.03;59.84
16094;BME280;8151;47.824;12.092;2023-02-23T05:07:05;95948.16;;;8.05;59.83
16094;BME280;8151;47.824;12.092;2023-02-23T05:09:33;95946.50;;;8.04;59.77
16094;BME280;8151;47.824;12.092;2023-02-23T05:12:02;95943.06;;;8.04;59.88
16094;BME280;8151;47.824;12.092;2023-02-23T05:14:30;95951.13;;;8.02;59.95
16094;BME280;8151;47.824;12.092;2023-02-23T05:16:58;95945.38;;;7.99;59.94
16094;BME280;8151;47.824;12.092;2023-02-23T05:19:27;95937.63;;;7.97;60.24
16094;BME280;8151;47.824;12.092;2023-02-23T05:21:57;95940.09;;;7.99;60.10
16094;BME280;8151;47.824;12.092;2023-02-23T05:24:27;95931.84;;;8.02;60.02
16094;BME280;8151;47.824;12.092;2023-02-23T05:26:56;95935.97;;;8.04;60.02
16094;BME280;8151;47.824;12.092;2023-02-23T05:29:26;95940.13;;;8.07;59.82
16094;BME280;8151;47.824;12.092;2023-02-23T05:31:55;95941.94;;;8.06;59.97
16094;BME280;8151;47.824;12.092;2023-02-23T05:34:23;95937.63;;;8.05;60.07
16094;BME280;8151;47.824;12.092;2023-02-23T05:36:52;95941.25;;;8.04;59.89
16094;BME280;8151;47.824;12.092;2023-02-23T05:39:22;95937.63;;;8.05;59.89
16094;BME280;8151;47.824;12.092;2023-02-23T05:41:50;95941.44;;;8.03;59.81
16094;BME280;8151;47.824;12.092;2023-02-23T05:44:19;95931.03;;;8.01;59.82
16094;BME280;8151;47.824;12.092;2023-02-23T05:46:47;95939.59;;;8.03;60.08
16094;BME280;8151;47.824;12.092;2023-02-23T05:49:16;95938.78;;;8.03;60.02
16094;BME280;8151;47.824;12.092;2023-02-23T05:51:44;95935.97;;;8.04;60.06
16094;BME280;8151;47.824;12.092;2023-02-23T05:54:13;95939.28;;;8.06;60.10
16094;BME280;8151;47.824;12.092;2023-02-23T05:56:42;95939.09;;;8.08;59.73
16094;BME280;8151;47.824;12.092;2023-02-23T05:59:11;95941.59;;;8.09;59.90
16094;BME280;8151;47.824;12.092;2023-02-23T06:01:40;95943.25;;;8.11;59.86
16094;BME280;8151;47.824;12.092;2023-02-23T06:04:08;95943.91;;;8.13;59.69
16094;BME280;8151;47.824;12.092;2023-02-23T06:06:36;95940.44;;;8.12;59.86
16094;BME280;8151;47.824;12.092;2023-02-23T06:09:05;95944.88;;;8.12;59.75
16094;BME280;8151;47.824;12.092;2023-02-23T06:11:40;95950.16;;;8.12;59.79
16094;BME280;8151;47.824;12.092;2023-02-23T06:14:10;95943.06;;;8.12;59.94
16094;BME280;8151;47.824;12.092;2023-02-23T06:16:39;95948.19;;;8.14;59.69
16094;BME280;8151;47.824;12.092;2023-02-23T06:19:07;95951.63;;;8.14;59.92
16094;BME280;8151;47.824;12.092;2023-02-23T06:21:36;95960.53;;;8.13;59.70
16094;BME280;8151;47.824;12.092;2023-02-23T06:24:04;95959.72;;;8.13;59.67
16094;BME280;8151;47.824;12.092;2023-02-23T06:26:33;95963.97;;;8.14;59.95
16094;BME280;8151;47.824;12.092;2023-02-23T06:29:01;95965.81;;;8.13;60.09
16094;BME280;8151;47.824;12.092;2023-02-23T06:31:31;95965.16;;;8.11;60.19
16094;BME280;8151;47.824;12.092;2023-02-23T06:34:00;95970.56;;;8.09;60.24
16094;BME280;8151;47.824;12.092;2023-02-23T06:36:28;95964.47;;;8.09;60.47
16094;BME280;8151;47.824;12.092;2023-02-23T06:38:57;95973.56;;;8.15;60.45
16094;BME280;8151;47.824;12.092;2023-02-23T06:41:25;95971.41;;;8.18;60.53
16094;BME280;8151;47.824;12.092;2023-02-23T06:43:54;95972.91;;;8.21;60.29
16094;BME280;8151;47.824;12.092;2023-02-23T06:46:23;95978.16;;;8.21;60.33
16094;BME280;8151;47.824;12.092;2023-02-23T06:48:55;95977.84;;;8.24;60.27
16094;BME280;8151;47.824;12.092;2023-02-23T06:51:27;95981.16;;;8.26;60.17
16094;BME280;8151;47.824;12.092;2023-02-23T06:53:55;95982.13;;;8.25;60.19
16094;BME280;8151;47.824;12.092;2023-02-23T06:56:24;95986.72;;;8.23;60.46
16094;BME280;8151;47.824;12.092;2023-02-23T06:58:52;95978.16;;;8.21;60.73
16094;BME280;8151;47.824;12.092;2023-02-23T07:01:21;95983.13;;;8.24;60.55
16094;BME280;8151;47.824;12.092;2023-02-23T07:03:50;95989.06;;;8.26;60.29
16094;BME280;8151;47.824;12.092;2023-02-23T07:06:20;95986.88;;;8.29;60.03
16094;BME280;8151;47.824;12.092;2023-02-23T07:08:48;95991.84;;;8.33;60.25
16094;BME280;8151;47.824;12.092;2023-02-23T07:11:17;95983.78;;;8.34;60.13
16094;BME280;8151;47.824;12.092;2023-02-23T07:13:46;95989.56;;;8.38;59.99
16094;BME280;8151;47.824;12.092;2023-02-23T07:16:14;95988.56;;;8.39;60.00
16094;BME280;8151;47.824;12.092;2023-02-23T07:18:43;95991.03;;;8.40;60.22
16094;BME280;8151;47.824;12.092;2023-02-23T07:21:13;95996.19;;;8.42;60.05
16094;BME280;8151;47.824;12.092;2023-02-23T07:23:43;96000.28;;;8.44;60.03
16094;BME280;8151;47.824;12.092;2023-02-23T07:26:14;95999.31;;;8.45;60.20
16094;BME280;8151;47.824;12.092;2023-02-23T07:28:43;95993.03;;;8.46;60.00
16094;BME280;8151;47.824;12.092;2023-02-23T07:31:11;95996.19;;;8.50;59.86
16094;BME280;8151;47.824;12.092;2023-02-23T07:33:40;95996.84;;;8.52;59.72
16094;BME280;8151;47.824;12.092;2023-02-23T07:36:09;95995.19;;;8.51;59.94
16094;BME280;8151;47.824;12.092;2023-02-23T07:38:37;95992.72;;;8.50;59.98
16094;BME280;8151;47.824;12.092;2023-02-23T07:41:07;95997.00;;;8.51;60.45
16094;BME280;8151;47.824;12.092;2023-02-23T07:43:36;95999.63;;;8.51;60.07
16094;BME280;8151;47.824;12.092;2023-02-23T07:46:05;95997.66;;;8.53;60.15
16094;BME280;8151;47.824;12.092;2023-02-23T07:48:33;95992.06;;;8.56;59.99
16094;BME280;8151;47.824;12.092;2023-02-23T07:51:07;96001.28;;;8.60;60.19
16094;BME280;8151;47.824;12.092;2023-02-23T07:53:36;96007.72;;;8.65;59.99
16094;BME280;8151;47.824;12.092;2023-02-23T07:56:07;95997.00;;;8.67;60.06
16094;BME280;8151;47.824;12.092;2023-02-23T07:58:37;96005.44;;;8.71;60.11
16094;BME280;8151;47.824;12.092;2023-02-23T08:01:06;96004.25;;;8.73;59.88
16094;BME280;8151;47.824;12.092;2023-02-23T08:03:35;96007.72;;;8.74;60.14
16094;BME280;8151;47.824;12.092;2023-02-23T08:06:04;96005.56;;;8.77;59.96
16094;BME280;8151;47.824;12.092;2023-02-23T08:08:32;96008.72;;;8.81;60.23
16094;BME280;8151;47.824;12.092;2023-02-23T08:11:03;96004.59;;;8.86;59.80
16094;BME280;8151;47.824;12.092;2023-02-23T08:13:32;96005.09;;;8.90;60.14
16094;BME280;8151;47.824;12.092;2023-02-23T08:16:02;96004.72;;;8.93;59.56
16094;BME280;8151;47.824;12.092;2023-02-23T08:18:31;96011.31;;;8.97;59.86
16094;BME280;8151;47.824;12.092;2023-02-23T08:21:01;96006.53;;;9.01;60.17
16094;BME280;8151;47.824;12.092;2023-02-23T08:23:30;96011.34;;;9.05;59.65
16094;BME280;8151;47.824;12.092;2023-02-23T08:25:59;96014.63;;;9.07;59.81
16094;BME280;8151;47.824;12.092;2023-02-23T08:28:28;96014.94;;;9.13;59.92
16094;BME280;8151;47.824;12.092;2023-02-23T08:30:58;96011.31;;;9.14;59.72
16094;BME280;8151;47.824;12.092;2023-02-23T08:33:27;96005.88;;;9.15;59.62
16094;BME280;8151;47.824;12.092;2023-02-23T08:35:58;96012.63;;;9.18;59.25
16094;BME280;8151;47.824;12.092;2023-02-23T08:38:29;96012.47;;;9.19;59.71
16094;BME280;8151;47.824;12.092;2023-02-23T08:40:59;96014.41;;;9.25;59.78
16094;BME280;8151;47.824;12.092;2023-02-23T08:43:27;96019.38;;;9.29;59.55
16094;BME280;8151;47.824;12.092;2023-02-23T08:45:56;96021.81;;;9.30;59.27
16094;BME280;8151;47.824;12.092;2023-02-23T08:48:26;96021.34;;;9.35;59.83
16094;BME280;8151;47.824;12.092;2023-02-23T08:50:55;96016.53;;;9.38;59.31
16094;BME280;8151;47.824;12.092;2023-02-23T08:53:24;96024.47;;;9.38;59.52
16094;BME280;8151;47.824;12.092;2023-02-23T08:55:56;96023.63;;;9.38;59.20
16094;BME280;8151;47.824;12.092;2023-02-23T08:58:25;96017.34;;;9.39;59.20
16094;BME280;8151;47.824;12.092;2023-02-23T09:00:54;96020.97;;;9.38;59.82
16094;BME280;8151;47.824;12.092;2023-02-23T09:03:22;96022.81;;;9.37;59.78
16094;BME280;8151;47.824;12.092;2023-02-23T09:05:53;96007.44;;;9.41;59.59
16094;BME280;8151;47.824;12.092;2023-02-23T09:08:22;96008.91;;;9.43;59.20
16094;BME280;8151;47.824;12.092;2023-02-23T09:10:50;96014.03;;;9.45;59.18
16094;BME280;8151;47.824;12.092;2023-02-23T09:13:19;96009.72;;;9.44;59.68
16094;BME280;8151;47.824;12.092;2023-02-23T09:15:48;96012.88;;;9.48;59.63
16094;BME280;8151;47.824;12.092;2023-02-23T09:18:16;96013.34;;;9.51;59.04
16094;BME280;8151;47.824;12.092;2023-02-23T09:20:45;96007.75;;;9.54;59.10
16094;BME280;8151;47.824;12.092;2023-02-23T09:23:14;96009.03;;;9.58;59.35
16094;BME280;8151;47.824;12.092;2023-02-23T09:25:43;96015.94;;;9.59;58.99
16094;BME280;8151;47.824;12.092;2023-02-23T09:28:18;96011.16;;;9.63;59.05
16094;BME280;8151;47.824;12.092;2023-02-23T09:30:49;96008.34;;;9.64;59.12
16094;BME280;8151;47.824;12.092;2023-02-23T09:33:17;96011.66;;;9.66;59.35
16094;BME280;8151;47.824;12.092;2023-02-23T09:35:46;96012.47;;;9.67;59.23
16094;BME280;8151;47.824;12.092;2023-02-23T09:38:16;96008.03;;;9.68;58.73
16094;BME280;8151;47.824;12.092;2023-02-23T09:40:46;96010.31;;;9.71;59.06
16094;BME280;8151;47.824;12.092;2023-02-23T09:43:19;96016.25;;;9.73;58.79
16094;BME280;8151;47.824;12.092;2023-02-23T09:45:51;96021.19;;;9.76;58.69
16094;BME280;8151;47.824;12.092;2023-02-23T09:48:24;96013.91;;;9.78;58.91
16094;BME280;8151;47.824;12.092;2023-02-23T09:50:55;96015.22;;;9.82;58.79
16094;BME280;8151;47.824;12.092;2023-02-23T09:53:29;96024.44;;;9.86;58.88
16094;BME280;8151;47.824;12.092;2023-02-23T09:56:04;96012.91;;;9.87;58.72
16094;BME280;8151;47.824;12.092;2023-02-23T09:58:34;96020.63;;;9.89;58.90
16094;BME280;8151;47.824;12.092;2023-02-23T10:01:40;96022.59;;;9.95;58.75
16094;BME280;8151;47.824;12.092;2023-02-23T10:04:17;96021.09;;;10.00;58.75
16094;BME280;8151;47.824;12.092;2023-02-23T10:06:52;96017.91;;;10.05;58.82
16094;BME280;8151;47.824;12.092;2023-02-23T10:09:30;96017.22;;;10.11;58.24
16094;BME280;8151;47.824;12.092;2023-02-23T10:12:09;96018.34;;;10.17;58.50
16094;BME280;8151;47.824;12.092;2023-02-23T10:14:56;96014.19;;;10.22;58.06
16094;BME280;8151;47.824;12.092;2023-02-23T10:17:34;96012.50;;;10.30;58.22
16094;BME280;8151;47.824;12.092;2023-02-23T10:20:13;96016.94;;;10.37;58.84
16094;BME280;8151;47.824;12.092;2023-02-23T10:22:46;96011.13;;;10.42;57.97
16094;BME280;8151;47.824;12.092;2023-02-23T10:25:20;96014.88;;;10.48;58.18
16094;BME280;8151;47.824;12.092;2023-02-23T10:27:51;96009.91;;;10.53;58.38
16094;BME280;8151;47.824;12.092;2023-02-23T10:30:23;96010.53;;;10.55;58.33
16094;BME280;8151;47.824;12.092;2023-02-23T10:32:57;96016.94;;;10.60;57.86
16094;BME280;8151;47.824;12.092;2023-02-23T10:35:28;96016.41;;;10.65;57.91
16094;BME280;8151;47.824;12.092;2023-02-23T10:37:59;96013.22;;;10.70;57.75
16094;BME280;8151;47.824;12.092;2023-02-23T10:40:31;96010.06;;;10.74;58.45
16094;BME280;8151;47.824;12.092;2023-02-23T10:43:00;96003.41;;;10.78;58.13
16094;BME280;8151;47.824;12.092;2023-02-23T10:45:34;96002.84;;;10.83;58.10
16094;BME280;8151;47.824;12.092;2023-02-23T10:48:07;96000.69;;;10.87;57.80
16094;BME280;8151;47.824;12.092;2023-02-23T10:50:37;96000.34;;;10.90;58.07
16094;BME280;8151;47.824;12.092;2023-02-23T10:53:11;95995.69;;;10.92;57.98
16094;BME280;8151;47.824;12.092;2023-02-23T10:55:45;95994.50;;;10.94;58.35
16094;BME280;8151;47.824;12.092;2023-02-23T10:58:16;95996.78;;;10.97;57.69
16094;BME280;8151;47.824;12.092;2023-02-23T11:00:51;95998.25;;;11.00;57.76
16094;BME280;8151;47.824;12.092;2023-02-23T11:03:27;95985.66;;;11.02;58.04
16094;BME280;8151;47.824;12.092;2023-02-23T11:06:27;95988.59;;;11.07;57.91
16094;BME280;8151;47.824;12.092;2023-02-23T11:08:56;95985.41;;;11.12;57.35
16094;BME280;8151;47.824;12.092;2023-02-23T11:11:27;95983.56;;;11.12;57.23
16094;BME280;8151;47.824;12.092;2023-02-23T11:14:15;95987.06;;;11.13;57.57
16094;BME280;8151;47.824;12.092;2023-02-23T11:16:44;95983.38;;;11.14;57.36
16094;BME280;8151;47.824;12.092;2023-02-23T11:19:23;95986.03;;;11.14;57.52
16094;BME280;8151;47.824;12.092;2023-02-23T11:21:53;95976.09;;;11.16;57.32
16094;BME280;8151;47.824;12.092;2023-02-23T11:24:24;95976.56;;;11.19;57.04
16094;BME280;8151;47.824;12.092;2023-02-23T11:26:57;95976.19;;;11.22;57.21
16094;BME280;8151;47.824;12.092;2023-02-23T11:29:30;95968.78;;;11.18;56.94
16094;BME280;8151;47.824;12.092;2023-02-23T11:32:06;95980.81;;;11.20;57.06
16094;BME280;8151;47.824;12.092;2023-02-23T11:34:37;95972.34;;;11.25;57.23
16094;BME280;8151;47.824;12.092;2023-02-23T11:37:18;95970.53;;;11.26;56.69
16094;BME280;8151;47.824;12.092;2023-02-23T11:39:51;95969.69;;;11.25;56.74
16094;BME280;8151;47.824;12.092;2023-02-23T11:42:22;95965.22;;;11.26;56.87
16094;BME280;8151;47.824;12.092;2023-02-23T11:45:03;95966.69;;;11.28;56.96
16094;BME280;8151;47.824;12.092;2023-02-23T11:47:33;95964.69;;;11.30;57.11
16094;BME280;8151;47.824;12.092;2023-02-23T11:50:06;95960.66;;;11.34;56.95
16094;BME280;8151;47.824;12.092;2023-02-23T11:52:35;95963.75;;;11.38;56.70
16094;BME280;8151;47.824;12.092;2023-02-23T11:55:07;95955.63;;;11.39;56.80
16094;BME280;8151;47.824;12.092;2023-02-23T11:57:45;95954.47;;;11.42;56.95
16094;BME280;8151;47.824;12.092;2023-02-23T12:00:22;95957.38;;;11.47;56.75
16094;BME280;8151;47.824;12.092;2023-02-23T12:02:55;95955.97;;;11.51;56.58
16094;BME280;8151;47.824;12.092;2023-02-23T12:05:26;95952.97;;;11.54;56.85
16094;BME280;8151;47.824;12.092;2023-02-23T12:08:00;95950.59;;;11.59;56.99
16094;BME280;8151;47.824;12.092;2023-02-23T12:10:34;95948.66;;;11.68;56.97
16094;BME280;8151;47.824;12.092;2023-02-23T12:13:15;95945.44;;;11.73;56.82
16094;BME280;8151;47.824;12.092;2023-02-23T12:15:53;95944.72;;;11.79;56.87
16094;BME280;8151;47.824;12.092;2023-02-23T12:18:43;95949.28;;;11.85;56.95
16094;BME280;8151;47.824;12.092;2023-02-23T12:21:22;95952.22;;;11.90;56.95
16094;BME280;8151;47.824;12.092;2023-02-23T12:24:02;95942.44;;;11.91;56.77
16094;BME280;8151;47.824;12.092;2023-02-23T12:26:37;95937.59;;;11.94;56.73
16094;BME280;8151;47.824;12.092;2023-02-23T12:29:17;95938.00;;;11.98;56.80
16094;BME280;8151;47.824;12.092;2023-02-23T12:31:51;95936.03;;;12.00;56.98
16094;BME280;8151;47.824;12.092;2023-02-23T12:34:25;95932.16;;;12.02;56.93
16094;BME280;8151;47.824;12.092;2023-02-23T12:36:58;95935.28;;;12.06;57.06
16094;BME280;8151;47.824;12.092;2023-02-23T12:39:31;95934.69;;;12.11;57.02
16094;BME280;8151;47.824;12.092;2023-02-23T12:42:06;95929.03;;;12.14;57.06
16094;BME280;8151;47.824;12.092;2023-02-23T12:44:43;95929.66;;;12.16;57.17
16094;BME280;8151;47.824;12.092;2023-02-23T12:47:21;95931.28;;;12.17;57.31
16094;BME280;8151;47.824;12.092;2023-02-23T12:49:58;95924.19;;;12.17;57.48
16094;BME280;8151;47.824;12.092;2023-02-23T12:52:35;95918.88;;;12.17;57.58
16094;BME280;8151;47.824;12.092;2023-02-23T12:55:09;95916.22;;;12.17;57.78
16094;BME280;8151;47.824;12.092;2023-02-23T12:57:43;95919.50;;;12.19;57.79
16094;BME280;8151;47.824;12.092;2023-02-23T13:00:35;95917.06;;;12.25;58.08
16094;BME280;8151;47.824;12.092;2023-02-23T13:06:19;95917.22;;;12.38;57.73
16094;BME280;8151;47.824;12.092;2023-02-23T13:08:57;95908.47;;;12.44;57.73
16094;BME280;8151;47.824;12.092;2023-02-23T13:12:02;95909.00;;;12.54;58.13
16094;BME280;8151;47.824;12.092;2023-02-23T13:14:38;95910.47;;;12.64;57.90
16094;BME280;8151;47.824;12.092;2023-02-23T13:17:27;95910.72;;;12.69;57.96
16094;BME280;8151;47.824;12.092;2023-02-23T13:20:02;95908.50;;;12.72;58.07
16094;BME280;8151;47.824;12.092;2023-02-23T13:22:36;95913.03;;;12.78;57.96
16094;BME280;8151;47.824;12.092;2023-02-23T13:25:19;95910.03;;;12.82;58.13
16094;BME280;8151;47.824;12.092;2023-02-23T13:27:51;95909.63;;;12.85;58.34
16094;BME280;8151;47.824;12.092;2023-02-23T13:30:21;95911.66;;;12.83;58.51
16094;BME280;8151;47.824;12.092;2023-02-23T13:32:51;95909.81;;;12.83;58.52
16094;BME280;8151;47.824;12.092;2023-02-23T13:35:21;95906.97;;;12.85;58.55
16094;BME280;8151;47.824;12.092;2023-02-23T13:37:51;95905.97;;;12.86;58.88
16094;BME280;8151;47.824;12.092;2023-02-23T13:40:28;95905.78;;;12.87;58.80
16094;BME280;8151;47.824;12.092;2023-02-23T13:43:04;95908.22;;;12.89;58.82
16094;BME280;8151;47.824;12.092;2023-02-23T13:46:04;95906.19;;;12.91;59.21
16094;BME280;8151;47.824;12.092;2023-02-23T13:48:48;95903.34;;;12.92;58.95
16094;BME280;8151;47.824;12.092;2023-02-23T13:51:34;95898.84;;;12.93;58.98